sensor_id;sensor_type;location;lat;lon;timestamp;temperature;humidity
12477;DHT22;6303;51.504;6.300;2022-11-13T00:00:55;21.00;59.60
12477;DHT22;6303;51.504;6.300;2022-11-13T00:03:41;21.00;59.60
12477;DHT22;6303;51.504;6.300;2022-11-13T00:06:27;21.00;59.50
12477;DHT22;6303;51.504;6.300;2022-11-13T00:09:14;21.00;59.60
12477;DHT22;6303;51.504;6.300;2022-11-13T00:11:59;21.00;59.60
12477;DHT22;6303;51.504;6.300;2022-11-13T00:14:45;21.00;59.60
12477;DHT22;6303;51.504;6.300;2022-11-13T00:17:30;21.00;59.60
12477;DHT22;6303;51.504;6.300;2022-11-13T00:20:16;21.00;59.80
12477;DHT22;6303;51.504;6.300;2022-11-13T00:23:03;20.90;59.60
12477;DHT22;6303;51.504;6.300;2022-11-13T00:25:49;21.00;59.60
12477;DHT22;6303;51.504;6.300;2022-11-13T00:28:35;21.00;59.60
12477;DHT22;6303;51.504;6.300;2022-11-13T00:31:21;21.00;59.50
12477;DHT22;6303;51.504;6.300;2022-11-13T00:34:07;21.00;59.60
12477;DHT22;6303;51.504;6.300;2022-11-13T00:36:53;21.00;59.50
12477;DHT22;6303;51.504;6.300;2022-11-13T00:39:40;21.00;59.50
12477;DHT22;6303;51.504;6.300;2022-11-13T00:42:25;21.00;59.50
12477;DHT22;6303;51.504;6.300;2022-11-13T00:45:11;21.00;59.40
12477;DHT22;6303;51.504;6.300;2022-11-13T00:47:57;21.00;59.40
12477;DHT22;6303;51.504;6.300;2022-11-13T00:50:43;21.00;59.40
12477;DHT22;6303;51.504;6.300;2022-11-13T00:53:29;21.00;59.50
12477;DHT22;6303;51.504;6.300;2022-11-13T00:56:16;20.90;59.40
12477;DHT22;6303;51.504;6.300;2022-11-13T00:59:02;20.90;59.40
12477;DHT22;6303;51.504;6.300;2022-11-13T01:01:47;20.90;59.30
12477;DHT22;6303;51.504;6.300;2022-11-13T01:04:33;20.90;59.40
12477;DHT22;6303;51.504;6.300;2022-11-13T01:07:19;20.90;59.40
12477;DHT22;6303;51.504;6.300;2022-11-13T01:10:05;20.90;59.40
12477;DHT22;6303;51.504;6.300;2022-11-13T01:12:51;20.90;59.40
12477;DHT22;6303;51.504;6.300;2022-11-13T01:15:38;20.90;59.40
12477;DHT22;6303;51.504;6.300;2022-11-13T01:18:23;20.90;59.40
12477;DHT22;6303;51.504;6.300;2022-11-13T01:21:11;20.90;59.40
12477;DHT22;6303;51.504;6.300;2022-11-13T01:23:56;20.90;59.40
12477;DHT22;6303;51.504;6.300;2022-11-13T01:26:42;20.90;59.40
12477;DHT22;6303;51.504;6.300;2022-11-13T01:29:29;20.90;59.30
12477;DHT22;6303;51.504;6.300;2022-11-13T01:32:14;20.90;59.30
12477;DHT22;6303;51.504;6.300;2022-11-13T01:35:00;20.90;59.40
12477;DHT22;6303;51.504;6.300;2022-11-13T01:37:46;20.90;59.40
12477;DHT22;6303;51.504;6.300;2022-11-13T01:40:31;20.80;59.50
12477;DHT22;6303;51.504;6.300;2022-11-13T01:43:23;20.80;59.50
12477;DHT22;6303;51.504;6.300;2022-11-13T01:46:16;20.80;59.60
12477;DHT22;6303;51.504;6.300;2022-11-13T01:49:14;20.80;59.60
12477;DHT22;6303;51.504;6.300;2022-11-13T01:52:04;20.80;59.70
12477;DHT22;6303;51.504;6.300;2022-11-13T01:54:54;20.80;59.70
12477;DHT22;6303;51.504;6.300;2022-11-13T01:57:40;20.80;59.70
12477;DHT22;6303;51.504;6.300;2022-11-13T02:00:26;20.80;59.60
12477;DHT22;6303;51.504;6.300;2022-11-13T02:03:12;20.80;59.60
12477;DHT22;6303;51.504;6.300;2022-11-13T02:05:59;20.80;59.70
12477;DHT22;6303;51.504;6.300;2022-11-13T02:08:45;20.80;59.70
12477;DHT22;6303;51.504;6.300;2022-11-13T02:11:30;20.80;59.70
12477;DHT22;6303;51.504;6.300;2022-11-13T02:14:17;20.80;59.70
12477;DHT22;6303;51.504;6.300;2022-11-13T02:17:06;20.80;59.60
12477;DHT22;6303;51.504;6.300;2022-11-13T02:19:56;20.80;59.60
12477;DHT22;6303;51.504;6.300;2022-11-13T02:22:47;20.80;59.60
12477;DHT22;6303;51.504;6.300;2022-11-13T02:25:36;20.80;59.50
12477;DHT22;6303;51.504;6.300;2022-11-13T02:28:22;20.80;59.50
12477;DHT22;6303;51.504;6.300;2022-11-13T02:31:09;20.80;59.50
12477;DHT22;6303;51.504;6.300;2022-11-13T02:33:54;20.80;59.50
12477;DHT22;6303;51.504;6.300;2022-11-13T02:36:40;19.00;58.50
12477;DHT22;6303;51.504;6.300;2022-11-13T02:39:25;20.80;59.40
12477;DHT22;6303;51.504;6.300;2022-11-13T02:42:12;20.80;59.40
12477;DHT22;6303;51.504;6.300;2022-11-13T02:44:58;20.80;59.50
12477;DHT22;6303;51.504;6.300;2022-11-13T02:47:44;20.80;59.50
12477;DHT22;6303;51.504;6.300;2022-11-13T02:50:30;20.80;59.40
12477;DHT22;6303;51.504;6.300;2022-11-13T02:53:15;20.80;59.30
12477;DHT22;6303;51.504;6.300;2022-11-13T02:56:01;20.70;59.30
12477;DHT22;6303;51.504;6.300;2022-11-13T02:58:48;20.70;59.30
12477;DHT22;6303;51.504;6.300;2022-11-13T03:01:33;20.70;59.30
12477;DHT22;6303;51.504;6.300;2022-11-13T03:04:19;20.40;59.20
12477;DHT22;6303;51.504;6.300;2022-11-13T03:07:04;20.70;59.30
12477;DHT22;6303;51.504;6.300;2022-11-13T03:09:50;20.80;59.40
12477;DHT22;6303;51.504;6.300;2022-11-13T03:12:36;20.70;59.30
12477;DHT22;6303;51.504;6.300;2022-11-13T03:15:23;20.70;59.20
12477;DHT22;6303;51.504;6.300;2022-11-13T03:18:08;20.70;59.20
12477;DHT22;6303;51.504;6.300;2022-11-13T03:20:55;20.70;59.10
12477;DHT22;6303;51.504;6.300;2022-11-13T03:23:41;20.80;59.20
12477;DHT22;6303;51.504;6.300;2022-11-13T03:26:28;20.70;59.20
12477;DHT22;6303;51.504;6.300;2022-11-13T03:29:14;20.70;59.20
12477;DHT22;6303;51.504;6.300;2022-11-13T03:32:00;20.70;59.20
12477;DHT22;6303;51.504;6.300;2022-11-13T03:34:47;20.70;59.10
12477;DHT22;6303;51.504;6.300;2022-11-13T03:37:32;20.70;59.20
12477;DHT22;6303;51.504;6.300;2022-11-13T03:40:18;20.70;59.30
12477;DHT22;6303;51.504;6.300;2022-11-13T03:43:04;20.70;59.30
12477;DHT22;6303;51.504;6.300;2022-11-13T03:45:49;20.70;59.20
12477;DHT22;6303;51.504;6.300;2022-11-13T03:48:36;20.70;59.20
12477;DHT22;6303;51.504;6.300;2022-11-13T03:51:22;20.70;59.30
12477;DHT22;6303;51.504;6.300;2022-11-13T03:54:07;20.70;59.30
12477;DHT22;6303;51.504;6.300;2022-11-13T03:56:53;20.60;59.30
12477;DHT22;6303;51.504;6.300;2022-11-13T03:59:39;20.70;59.30
12477;DHT22;6303;51.504;6.300;2022-11-13T04:02:24;20.60;59.30
12477;DHT22;6303;51.504;6.300;2022-11-13T04:05:11;20.60;59.30
12477;DHT22;6303;51.504;6.300;2022-11-13T04:07:56;22.40;60.10
12477;DHT22;6303;51.504;6.300;2022-11-13T04:10:42;20.60;59.20
12477;DHT22;6303;51.504;6.300;2022-11-13T04:13:28;20.60;59.30
12477;DHT22;6303;51.504;6.300;2022-11-13T04:16:14;20.60;59.30
12477;DHT22;6303;51.504;6.300;2022-11-13T04:18:59;20.60;59.30
12477;DHT22;6303;51.504;6.300;2022-11-13T04:21:46;20.60;59.30
12477;DHT22;6303;51.504;6.300;2022-11-13T04:24:31;20.60;59.30
12477;DHT22;6303;51.504;6.300;2022-11-13T04:27:17;20.60;59.30
12477;DHT22;6303;51.504;6.300;2022-11-13T04:30:04;20.60;59.20
12477;DHT22;6303;51.504;6.300;2022-11-13T04:32:49;20.60;59.20
12477;DHT22;6303;51.504;6.300;2022-11-13T04:35:35;20.60;59.10
12477;DHT22;6303;51.504;6.300;2022-11-13T04:38:22;20.60;59.10
12477;DHT22;6303;51.504;6.300;2022-11-13T04:41:07;20.60;59.10
12477;DHT22;6303;51.504;6.300;2022-11-13T04:44:12;20.50;59.00
12477;DHT22;6303;51.504;6.300;2022-11-13T04:46:57;20.50;59.10
12477;DHT22;6303;51.504;6.300;2022-11-13T04:49:43;20.50;59.10
12477;DHT22;6303;51.504;6.300;2022-11-13T04:52:29;20.50;59.10
12477;DHT22;6303;51.504;6.300;2022-11-13T04:55:16;20.50;59.20
12477;DHT22;6303;51.504;6.300;2022-11-13T04:58:01;20.50;59.20
12477;DHT22;6303;51.504;6.300;2022-11-13T05:00:47;20.50;59.10
12477;DHT22;6303;51.504;6.300;2022-11-13T05:03:32;20.50;59.10
12477;DHT22;6303;51.504;6.300;2022-11-13T05:06:18;20.50;59.20
12477;DHT22;6303;51.504;6.300;2022-11-13T05:09:04;20.50;59.20
12477;DHT22;6303;51.504;6.300;2022-11-13T05:11:51;20.50;59.20
12477;DHT22;6303;51.504;6.300;2022-11-13T05:14:37;20.50;59.10
12477;DHT22;6303;51.504;6.300;2022-11-13T05:17:23;20.50;59.10
12477;DHT22;6303;51.504;6.300;2022-11-13T05:20:09;20.50;59.10
12477;DHT22;6303;51.504;6.300;2022-11-13T05:22:55;20.50;59.10
12477;DHT22;6303;51.504;6.300;2022-11-13T05:25:41;20.40;59.00
12477;DHT22;6303;51.504;6.300;2022-11-13T05:28:28;20.40;59.00
12477;DHT22;6303;51.504;6.300;2022-11-13T05:31:15;20.50;59.00
12477;DHT22;6303;51.504;6.300;2022-11-13T05:34:02;20.40;59.00
12477;DHT22;6303;51.504;6.300;2022-11-13T05:36:48;20.70;59.10
12477;DHT22;6303;51.504;6.300;2022-11-13T05:39:33;20.40;59.10
12477;DHT22;6303;51.504;6.300;2022-11-13T05:42:19;20.40;59.00
12477;DHT22;6303;51.504;6.300;2022-11-13T05:45:06;20.40;59.10
12477;DHT22;6303;51.504;6.300;2022-11-13T05:47:52;20.40;59.00
12477;DHT22;6303;51.504;6.300;2022-11-13T05:50:37;20.40;59.10
12477;DHT22;6303;51.504;6.300;2022-11-13T05:53:23;20.40;59.00
12477;DHT22;6303;51.504;6.300;2022-11-13T05:56:11;20.40;59.10
12477;DHT22;6303;51.504;6.300;2022-11-13T05:58:57;20.40;59.00
12477;DHT22;6303;51.504;6.300;2022-11-13T06:01:44;20.40;59.00
12477;DHT22;6303;51.504;6.300;2022-11-13T06:04:29;20.30;58.90
12477;DHT22;6303;51.504;6.300;2022-11-13T06:07:15;20.40;59.00
12477;DHT22;6303;51.504;6.300;2022-11-13T06:10:00;20.30;58.90
12477;DHT22;6303;51.504;6.300;2022-11-13T06:12:46;20.30;58.90
12477;DHT22;6303;51.504;6.300;2022-11-13T06:15:32;20.30;59.00
12477;DHT22;6303;51.504;6.300;2022-11-13T06:18:22;20.30;59.00
12477;DHT22;6303;51.504;6.300;2022-11-13T06:21:09;20.30;58.90
12477;DHT22;6303;51.504;6.300;2022-11-13T06:23:56;20.30;58.90
12477;DHT22;6303;51.504;6.300;2022-11-13T06:26:42;20.30;58.90
12477;DHT22;6303;51.504;6.300;2022-11-13T06:29:27;20.30;58.80
12477;DHT22;6303;51.504;6.300;2022-11-13T06:32:13;20.30;58.80
12477;DHT22;6303;51.504;6.300;2022-11-13T06:35:00;20.30;58.90
12477;DHT22;6303;51.504;6.300;2022-11-13T06:37:45;20.30;58.80
12477;DHT22;6303;51.504;6.300;2022-11-13T06:40:31;20.30;58.80
12477;DHT22;6303;51.504;6.300;2022-11-13T06:43:16;20.30;58.80
12477;DHT22;6303;51.504;6.300;2022-11-13T06:46:04;20.30;58.80
12477;DHT22;6303;51.504;6.300;2022-11-13T06:48:50;20.30;58.90
12477;DHT22;6303;51.504;6.300;2022-11-13T06:51:37;20.30;58.80
12477;DHT22;6303;51.504;6.300;2022-11-13T06:54:23;20.30;58.80
12477;DHT22;6303;51.504;6.300;2022-11-13T06:57:09;20.30;58.80
12477;DHT22;6303;51.504;6.300;2022-11-13T06:59:55;20.30;58.70
12477;DHT22;6303;51.504;6.300;2022-11-13T07:02:40;20.30;58.70
12477;DHT22;6303;51.504;6.300;2022-11-13T07:05:26;20.30;58.70
12477;DHT22;6303;51.504;6.300;2022-11-13T07:08:14;20.30;58.70
12477;DHT22;6303;51.504;6.300;2022-11-13T07:11:00;20.60;58.90
12477;DHT22;6303;51.504;6.300;2022-11-13T07:13:45;20.30;59.10
12477;DHT22;6303;51.504;6.300;2022-11-13T07:16:31;20.40;58.70
12477;DHT22;6303;51.504;6.300;2022-11-13T07:19:17;20.60;58.30
12477;DHT22;6303;51.504;6.300;2022-11-13T07:22:03;20.70;58.30
12477;DHT22;6303;51.504;6.300;2022-11-13T07:24:50;20.70;58.40
12477;DHT22;6303;51.504;6.300;2022-11-13T07:27:35;20.90;58.40
12477;DHT22;6303;51.504;6.300;2022-11-13T07:30:21;21.00;58.10
12477;DHT22;6303;51.504;6.300;2022-11-13T07:33:06;21.10;57.80
12477;DHT22;6303;51.504;6.300;2022-11-13T07:35:52;21.80;57.90
12477;DHT22;6303;51.504;6.300;2022-11-13T07:38:38;21.20;57.30
12477;DHT22;6303;51.504;6.300;2022-11-13T07:41:25;21.20;57.10
12477;DHT22;6303;51.504;6.300;2022-11-13T07:44:10;21.30;57.00
12477;DHT22;6303;51.504;6.300;2022-11-13T07:46:56;21.40;56.70
12477;DHT22;6303;51.504;6.300;2022-11-13T07:49:42;21.50;56.40
12477;DHT22;6303;51.504;6.300;2022-11-13T07:52:27;21.60;56.10
12477;DHT22;6303;51.504;6.300;2022-11-13T07:55:13;21.60;55.80
12477;DHT22;6303;51.504;6.300;2022-11-13T07:58:01;21.70;55.60
12477;DHT22;6303;51.504;6.300;2022-11-13T08:00:47;21.80;55.40
12477;DHT22;6303;51.504;6.300;2022-11-13T08:03:32;21.90;55.10
12477;DHT22;6303;51.504;6.300;2022-11-13T08:06:18;21.90;54.80
12477;DHT22;6303;51.504;6.300;2022-11-13T08:09:04;22.00;54.50
12477;DHT22;6303;51.504;6.300;2022-11-13T08:11:49;22.10;54.30
12477;DHT22;6303;51.504;6.300;2022-11-13T08:14:36;22.10;54.20
12477;DHT22;6303;51.504;6.300;2022-11-13T08:17:22;22.10;54.00
12477;DHT22;6303;51.504;6.300;2022-11-13T08:20:08;22.20;53.80
12477;DHT22;6303;51.504;6.300;2022-11-13T08:22:56;22.30;53.60
12477;DHT22;6303;51.504;6.300;2022-11-13T08:25:41;22.30;53.30
12477;DHT22;6303;51.504;6.300;2022-11-13T08:28:27;22.40;53.10
12477;DHT22;6303;51.504;6.300;2022-11-13T08:31:15;22.50;52.90
12477;DHT22;6303;51.504;6.300;2022-11-13T08:34:01;22.50;52.80
12477;DHT22;6303;51.504;6.300;2022-11-13T08:36:46;22.60;52.50
12477;DHT22;6303;51.504;6.300;2022-11-13T08:39:32;22.60;52.50
12477;DHT22;6303;51.504;6.300;2022-11-13T08:42:19;22.60;52.30
12477;DHT22;6303;51.504;6.300;2022-11-13T08:45:06;22.70;52.20
12477;DHT22;6303;51.504;6.300;2022-11-13T08:47:53;22.70;52.30
12477;DHT22;6303;51.504;6.300;2022-11-13T08:50:43;22.80;52.60
12477;DHT22;6303;51.504;6.300;2022-11-13T08:53:28;22.80;52.70
12477;DHT22;6303;51.504;6.300;2022-11-13T08:56:14;22.90;52.70
12477;DHT22;6303;51.504;6.300;2022-11-13T08:59:00;23.00;52.70
12477;DHT22;6303;51.504;6.300;2022-11-13T09:01:46;23.00;52.80
12477;DHT22;6303;51.504;6.300;2022-11-13T09:04:33;23.00;52.90
12477;DHT22;6303;51.504;6.300;2022-11-13T09:07:18;23.10;53.10
12477;DHT22;6303;51.504;6.300;2022-11-13T09:10:04;23.10;53.00
12477;DHT22;6303;51.504;6.300;2022-11-13T09:12:55;23.10;53.10
12477;DHT22;6303;51.504;6.300;2022-11-13T09:15:41;23.20;53.20
12477;DHT22;6303;51.504;6.300;2022-11-13T09:18:27;23.20;53.10
12477;DHT22;6303;51.504;6.300;2022-11-13T09:21:14;23.30;53.00
12477;DHT22;6303;51.504;6.300;2022-11-13T09:23:59;23.30;52.90
12477;DHT22;6303;51.504;6.300;2022-11-13T09:26:45;23.30;53.40
12477;DHT22;6303;51.504;6.300;2022-11-13T09:29:31;23.40;52.80
12477;DHT22;6303;51.504;6.300;2022-11-13T09:32:17;23.40;52.80
12477;DHT22;6303;51.504;6.300;2022-11-13T09:35:03;23.40;52.80
12477;DHT22;6303;51.504;6.300;2022-11-13T09:37:52;23.50;52.80
12477;DHT22;6303;51.504;6.300;2022-11-13T09:40:42;23.50;52.90
12477;DHT22;6303;51.504;6.300;2022-11-13T09:43:33;23.60;52.70
12477;DHT22;6303;51.504;6.300;2022-11-13T09:46:24;23.60;52.80
12477;DHT22;6303;51.504;6.300;2022-11-13T09:49:15;23.60;52.80
12477;DHT22;6303;51.504;6.300;2022-11-13T09:52:03;23.60;52.80
12477;DHT22;6303;51.504;6.300;2022-11-13T09:54:51;23.70;52.90
12477;DHT22;6303;51.504;6.300;2022-11-13T09:57:43;23.60;53.00
12477;DHT22;6303;51.504;6.300;2022-11-13T10:00:33;22.20;52.20
12477;DHT22;6303;51.504;6.300;2022-11-13T10:03:28;23.70;53.00
12477;DHT22;6303;51.504;6.300;2022-11-13T10:06:20;21.70;52.10
12477;DHT22;6303;51.504;6.300;2022-11-13T10:09:16;23.80;52.90
12477;DHT22;6303;51.504;6.300;2022-11-13T10:12:07;23.80;52.90
12477;DHT22;6303;51.504;6.300;2022-11-13T10:14:54;23.90;53.40
12477;DHT22;6303;51.504;6.300;2022-11-13T10:17:45;23.90;52.70
12477;DHT22;6303;51.504;6.300;2022-11-13T10:20:36;23.90;52.70
12477;DHT22;6303;51.504;6.300;2022-11-13T10:23:26;23.90;52.70
12477;DHT22;6303;51.504;6.300;2022-11-13T10:26:14;23.90;52.60
12477;DHT22;6303;51.504;6.300;2022-11-13T10:29:09;23.90;52.60
12477;DHT22;6303;51.504;6.300;2022-11-13T10:31:56;23.90;52.50
12477;DHT22;6303;51.504;6.300;2022-11-13T10:34:44;23.90;52.40
12477;DHT22;6303;51.504;6.300;2022-11-13T10:37:54;23.90;52.40
12477;DHT22;6303;51.504;6.300;2022-11-13T10:40:42;23.80;52.30
12477;DHT22;6303;51.504;6.300;2022-11-13T10:43:27;24.00;52.40
12477;DHT22;6303;51.504;6.300;2022-11-13T10:46:19;24.00;52.40
12477;DHT22;6303;51.504;6.300;2022-11-13T10:49:11;24.00;52.40
12477;DHT22;6303;51.504;6.300;2022-11-13T10:51:58;24.00;52.30
12477;DHT22;6303;51.504;6.300;2022-11-13T10:54:45;24.00;52.30
12477;DHT22;6303;51.504;6.300;2022-11-13T10:57:31;24.00;52.30
12477;DHT22;6303;51.504;6.300;2022-11-13T11:00:21;24.00;52.20
12477;DHT22;6303;51.504;6.300;2022-11-13T11:03:13;24.10;52.30
12477;DHT22;6303;51.504;6.300;2022-11-13T11:06:01;24.10;52.20
12477;DHT22;6303;51.504;6.300;2022-11-13T11:08:47;24.10;52.20
12477;DHT22;6303;51.504;6.300;2022-11-13T11:11:33;24.10;52.20
12477;DHT22;6303;51.504;6.300;2022-11-13T11:14:40;24.10;52.20
12477;DHT22;6303;51.504;6.300;2022-11-13T11:17:32;24.10;52.20
12477;DHT22;6303;51.504;6.300;2022-11-13T11:20:25;24.10;52.20
12477;DHT22;6303;51.504;6.300;2022-11-13T11:23:20;24.10;52.20
12477;DHT22;6303;51.504;6.300;2022-11-13T11:26:10;24.10;52.20
12477;DHT22;6303;51.504;6.300;2022-11-13T11:29:11;24.10;52.30
12477;DHT22;6303;51.504;6.300;2022-11-13T11:32:02;24.00;52.20
12477;DHT22;6303;51.504;6.300;2022-11-13T11:34:55;24.10;52.30
12477;DHT22;6303;51.504;6.300;2022-11-13T11:37:58;24.10;52.30
12477;DHT22;6303;51.504;6.300;2022-11-13T11:40:48;24.10;52.30
12477;DHT22;6303;51.504;6.300;2022-11-13T11:43:40;24.10;52.20
12477;DHT22;6303;51.504;6.300;2022-11-13T11:46:27;24.10;52.20
12477;DHT22;6303;51.504;6.300;2022-11-13T11:49:14;24.00;52.20
12477;DHT22;6303;51.504;6.300;2022-11-13T11:52:09;24.00;52.20
12477;DHT22;6303;51.504;6.300;2022-11-13T11:55:09;24.00;52.20
12477;DHT22;6303;51.504;6.300;2022-11-13T11:58:04;24.00;52.20
12477;DHT22;6303;51.504;6.300;2022-11-13T12:01:03;24.00;52.20
12477;DHT22;6303;51.504;6.300;2022-11-13T12:03:59;24.00;52.20
12477;DHT22;6303;51.504;6.300;2022-11-13T12:06:56;24.00;52.40
12477;DHT22;6303;51.504;6.300;2022-11-13T12:09:53;24.00;52.50
12477;DHT22;6303;51.504;6.300;2022-11-13T12:12:50;24.00;52.50
12477;DHT22;6303;51.504;6.300;2022-11-13T12:15:47;24.00;52.40
12477;DHT22;6303;51.504;6.300;2022-11-13T12:18:45;23.90;52.40
12477;DHT22;6303;51.504;6.300;2022-11-13T12:21:42;23.90;52.40
12477;DHT22;6303;51.504;6.300;2022-11-13T12:24:58;23.90;52.40
12477;DHT22;6303;51.504;6.300;2022-11-13T12:27:55;23.90;52.50
12477;DHT22;6303;51.504;6.300;2022-11-13T12:30:51;23.70;52.40
12477;DHT22;6303;51.504;6.300;2022-11-13T12:33:44;23.90;52.60
12477;DHT22;6303;51.504;6.300;2022-11-13T12:36:31;23.90;52.70
12477;DHT22;6303;51.504;6.300;2022-11-13T12:39:33;23.90;52.70
12477;DHT22;6303;51.504;6.300;2022-11-13T12:42:27;23.80;52.80
12477;DHT22;6303;51.504;6.300;2022-11-13T12:45:19;23.80;52.80
12477;DHT22;6303;51.504;6.300;2022-11-13T12:48:08;23.80;52.80
12477;DHT22;6303;51.504;6.300;2022-11-13T12:50:58;23.80;52.90
12477;DHT22;6303;51.504;6.300;2022-11-13T12:53:46;23.80;52.90
12477;DHT22;6303;51.504;6.300;2022-11-13T12:56:33;23.70;52.90
12477;DHT22;6303;51.504;6.300;2022-11-13T12:59:32;23.70;53.00
12477;DHT22;6303;51.504;6.300;2022-11-13T13:02:36;23.70;53.00
12477;DHT22;6303;51.504;6.300;2022-11-13T13:05:30;23.70;53.10
12477;DHT22;6303;51.504;6.300;2022-11-13T13:11:39;23.60;53.10
12477;DHT22;6303;51.504;6.300;2022-11-13T13:14:52;23.60;53.20
12477;DHT22;6303;51.504;6.300;2022-11-13T13:17:41;23.60;53.30
12477;DHT22;6303;51.504;6.300;2022-11-13T13:20:33;23.60;53.30
12477;DHT22;6303;51.504;6.300;2022-11-13T13:23:26;23.60;54.00
12477;DHT22;6303;51.504;6.300;2022-11-13T13:26:18;23.50;53.40
12477;DHT22;6303;51.504;6.300;2022-11-13T13:29:15;23.50;53.50
12477;DHT22;6303;51.504;6.300;2022-11-13T13:32:09;23.40;53.50
12477;DHT22;6303;51.504;6.300;2022-11-13T13:35:04;23.40;53.60
12477;DHT22;6303;51.504;6.300;2022-11-13T13:37:57;23.40;53.70
12477;DHT22;6303;51.504;6.300;2022-11-13T13:41:07;23.40;53.80
12477;DHT22;6303;51.504;6.300;2022-11-13T13:44:08;23.30;53.80
12477;DHT22;6303;51.504;6.300;2022-11-13T13:46:57;23.30;53.90
12477;DHT22;6303;51.504;6.300;2022-11-13T13:49:43;23.30;54.00
12477;DHT22;6303;51.504;6.300;2022-11-13T13:52:32;23.20;54.00
12477;DHT22;6303;51.504;6.300;2022-11-13T13:55:23;23.20;54.00
12477;DHT22;6303;51.504;6.300;2022-11-13T13:58:13;23.20;54.20
12477;DHT22;6303;51.504;6.300;2022-11-13T14:01:00;23.20;54.30
12477;DHT22;6303;51.504;6.300;2022-11-13T14:03:46;23.20;54.30
12477;DHT22;6303;51.504;6.300;2022-11-13T14:06:32;23.10;54.30
12477;DHT22;6303;51.504;6.300;2022-11-13T14:09:20;23.10;54.40
12477;DHT22;6303;51.504;6.300;2022-11-13T14:12:16;23.10;54.40
12477;DHT22;6303;51.504;6.300;2022-11-13T14:15:03;23.10;54.60
12477;DHT22;6303;51.504;6.300;2022-11-13T14:17:49;23.10;54.60
12477;DHT22;6303;51.504;6.300;2022-11-13T14:20:41;23.00;54.60
12477;DHT22;6303;51.504;6.300;2022-11-13T14:23:33;23.00;54.70
12477;DHT22;6303;51.504;6.300;2022-11-13T14:26:21;23.00;54.70
12477;DHT22;6303;51.504;6.300;2022-11-13T14:29:19;23.00;54.80
12477;DHT22;6303;51.504;6.300;2022-11-13T14:32:09;22.90;54.70
12477;DHT22;6303;51.504;6.300;2022-11-13T14:34:59;22.90;54.80
12477;DHT22;6303;51.504;6.300;2022-11-13T14:37:45;22.90;54.80
12477;DHT22;6303;51.504;6.300;2022-11-13T14:40:31;22.90;54.90
12477;DHT22;6303;51.504;6.300;2022-11-13T14:43:22;22.90;54.90
12477;DHT22;6303;51.504;6.300;2022-11-13T14:46:27;22.90;54.90
12477;DHT22;6303;51.504;6.300;2022-11-13T14:49:24;22.90;54.90
12477;DHT22;6303;51.504;6.300;2022-11-13T14:52:19;22.90;54.90
12477;DHT22;6303;51.504;6.300;2022-11-13T14:55:18;22.90;55.00
12477;DHT22;6303;51.504;6.300;2022-11-13T14:58:04;22.90;55.00
12477;DHT22;6303;51.504;6.300;2022-11-13T15:00:51;22.80;55.00
12477;DHT22;6303;51.504;6.300;2022-11-13T15:03:36;22.80;55.10
12477;DHT22;6303;51.504;6.300;2022-11-13T15:06:23;22.80;55.20
12477;DHT22;6303;51.504;6.300;2022-11-13T15:09:12;22.80;55.30
12477;DHT22;6303;51.504;6.300;2022-11-13T15:11:58;22.80;55.40
12477;DHT22;6303;51.504;6.300;2022-11-13T15:14:43;22.80;55.60
12477;DHT22;6303;51.504;6.300;2022-11-13T15:17:31;22.80;55.70
12477;DHT22;6303;51.504;6.300;2022-11-13T15:20:20;22.80;55.80
12477;DHT22;6303;51.504;6.300;2022-11-13T15:23:08;22.80;56.00
12477;DHT22;6303;51.504;6.300;2022-11-13T15:25:59;22.80;56.10
12477;DHT22;6303;51.504;6.300;2022-11-13T15:28:45;22.70;56.00
12477;DHT22;6303;51.504;6.300;2022-11-13T15:31:32;22.80;56.10
12477;DHT22;6303;51.504;6.300;2022-11-13T15:34:20;22.70;56.00
12477;DHT22;6303;51.504;6.300;2022-11-13T15:37:13;22.70;56.10
12477;DHT22;6303;51.504;6.300;2022-11-13T15:39:58;22.70;56.10
12477;DHT22;6303;51.504;6.300;2022-11-13T15:42:44;22.70;56.10
12477;DHT22;6303;51.504;6.300;2022-11-13T15:45:29;22.70;56.10
12477;DHT22;6303;51.504;6.300;2022-11-13T15:48:15;22.70;56.10
12477;DHT22;6303;51.504;6.300;2022-11-13T15:51:02;22.70;56.00
12477;DHT22;6303;51.504;6.300;2022-11-13T15:53:49;22.70;56.10
12477;DHT22;6303;51.504;6.300;2022-11-13T15:56:36;22.70;56.10
12477;DHT22;6303;51.504;6.300;2022-11-13T15:59:21;22.70;56.10
12477;DHT22;6303;51.504;6.300;2022-11-13T16:02:07;22.70;56.20
12477;DHT22;6303;51.504;6.300;2022-11-13T16:04:53;22.60;55.70
12477;DHT22;6303;51.504;6.300;2022-11-13T16:07:40;22.50;56.10
12477;DHT22;6303;51.504;6.300;2022-11-13T16:10:26;22.60;56.20
12477;DHT22;6303;51.504;6.300;2022-11-13T16:13:11;22.60;56.20
12477;DHT22;6303;51.504;6.300;2022-11-13T16:15:57;22.60;56.20
12477;DHT22;6303;51.504;6.300;2022-11-13T16:18:43;22.60;56.20
12477;DHT22;6303;51.504;6.300;2022-11-13T16:21:29;22.50;56.20
12477;DHT22;6303;51.504;6.300;2022-11-13T16:24:17;22.50;56.20
12477;DHT22;6303;51.504;6.300;2022-11-13T16:27:02;22.50;56.30
12477;DHT22;6303;51.504;6.300;2022-11-13T16:29:47;22.40;56.30
12477;DHT22;6303;51.504;6.300;2022-11-13T16:32:33;22.40;56.30
12477;DHT22;6303;51.504;6.300;2022-11-13T16:35:19;22.40;56.40
12477;DHT22;6303;51.504;6.300;2022-11-13T16:38:10;22.40;56.40
12477;DHT22;6303;51.504;6.300;2022-11-13T16:40:57;22.40;56.50
12477;DHT22;6303;51.504;6.300;2022-11-13T16:43:43;22.40;56.50
12477;DHT22;6303;51.504;6.300;2022-11-13T16:46:30;22.30;56.50
12477;DHT22;6303;51.504;6.300;2022-11-13T16:49:17;22.30;56.50
12477;DHT22;6303;51.504;6.300;2022-11-13T16:52:03;22.30;56.50
12477;DHT22;6303;51.504;6.300;2022-11-13T16:54:49;22.30;56.60
12477;DHT22;6303;51.504;6.300;2022-11-13T16:57:36;22.30;56.60
12477;DHT22;6303;51.504;6.300;2022-11-13T17:00:22;22.20;56.60
12477;DHT22;6303;51.504;6.300;2022-11-13T17:03:09;22.20;56.70
12477;DHT22;6303;51.504;6.300;2022-11-13T17:05:55;22.20;56.70
12477;DHT22;6303;51.504;6.300;2022-11-13T17:08:40;22.20;56.80
12477;DHT22;6303;51.504;6.300;2022-11-13T17:11:30;22.20;56.80
12477;DHT22;6303;51.504;6.300;2022-11-13T17:14:17;22.10;56.80
12477;DHT22;6303;51.504;6.300;2022-11-13T17:17:04;22.10;56.90
12477;DHT22;6303;51.504;6.300;2022-11-13T17:19:49;22.10;57.00
12477;DHT22;6303;51.504;6.300;2022-11-13T17:22:34;22.00;57.10
12477;DHT22;6303;51.504;6.300;2022-11-13T17:25:20;22.00;57.20
12477;DHT22;6303;51.504;6.300;2022-11-13T17:28:09;22.00;57.20
12477;DHT22;6303;51.504;6.300;2022-11-13T17:30:59;21.90;57.20
12477;DHT22;6303;51.504;6.300;2022-11-13T17:33:47;21.90;57.30
12477;DHT22;6303;51.504;6.300;2022-11-13T17:36:36;21.90;57.30
12477;DHT22;6303;51.504;6.300;2022-11-13T17:39:21;21.90;57.40
12477;DHT22;6303;51.504;6.300;2022-11-13T17:42:07;21.90;57.40
12477;DHT22;6303;51.504;6.300;2022-11-13T17:44:53;21.90;57.30
12477;DHT22;6303;51.504;6.300;2022-11-13T17:47:40;21.90;57.30
12477;DHT22;6303;51.504;6.300;2022-11-13T17:50:26;21.80;57.30
12477;DHT22;6303;51.504;6.300;2022-11-13T17:53:12;21.80;57.30
12477;DHT22;6303;51.504;6.300;2022-11-13T17:55:59;21.80;57.40
12477;DHT22;6303;51.504;6.300;2022-11-13T17:58:45;21.80;57.50
12477;DHT22;6303;51.504;6.300;2022-11-13T18:01:31;21.80;57.50